createdAt,value
2023-01-27T04:04:29.720Z,100749.88
2023-01-27T04:05:31.696Z,100759.34
2023-01-27T04:06:36.348Z,100758.48
2023-01-27T04:07:38.352Z,100755.01
2023-01-27T04:08:44.232Z,100764.48
2023-01-27T04:09:46.384Z,100755.90
2023-01-27T04:10:48.463Z,100756.70
2023-01-27T04:11:50.751Z,100761.08
2023-01-27T04:12:52.668Z,100757.59
2023-01-27T04:13:54.529Z,100761.09
2023-01-27T04:14:57.271Z,100754.18
2023-01-27T04:15:59.221Z,100757.66
2023-01-27T04:17:07.449Z,100756.78
2023-01-27T04:18:09.476Z,100749.03
2023-01-27T04:19:13.728Z,100762.83
2023-01-27T04:20:16.485Z,100762.87
2023-01-27T04:21:18.373Z,100757.72
2023-01-27T04:22:20.291Z,100766.37
2023-01-27T04:23:22.779Z,100765.48
2023-01-27T04:24:25.073Z,100770.66
2023-01-27T04:25:27.168Z,100761.98
2023-01-27T04:26:30.022Z,100775.86
2023-01-27T04:27:31.905Z,100771.52
2023-01-27T04:28:43.766Z,100771.55
2023-01-27T04:29:39.948Z,100772.41
2023-01-27T04:30:42.162Z,100772.38
2023-01-27T04:31:44.151Z,100766.37
2023-01-27T04:32:46.299Z,100770.65
2023-01-27T04:33:48.585Z,100771.58
2023-01-27T04:34:50.528Z,100766.36
2023-01-27T04:35:52.520Z,100774.12
2023-01-27T04:36:55.631Z,100768.95
2023-01-27T04:37:57.524Z,100765.50
2023-01-27T04:38:59.726Z,100757.72
2023-01-27T04:40:01.612Z,100756.89
2023-01-27T04:41:03.711Z,100756.92
2023-01-27T04:42:05.786Z,100763.77
2023-01-27T04:43:07.672Z,100755.17
2023-01-27T04:44:09.791Z,100762.05
2023-01-27T04:45:12.129Z,100765.48
2023-01-27T04:46:14.409Z,100761.17
2023-01-27T04:47:16.444Z,100753.40
2023-01-27T04:48:18.324Z,100761.19
2023-01-27T04:49:20.616Z,100766.37
2023-01-27T04:50:22.737Z,100762.91
2023-01-27T04:51:24.639Z,100768.88
2023-01-27T04:52:27.608Z,100765.45
2023-01-27T04:53:29.584Z,100768.91
2023-01-27T04:54:31.512Z,100768.88
2023-01-27T04:55:34.185Z,100781.00
2023-01-27T04:56:39.001Z,100770.60
2023-01-27T04:57:41.075Z,100770.56
2023-01-27T04:58:42.948Z,100766.30
2023-01-27T04:59:45.244Z,100774.95
2023-01-27T05:00:47.421Z,100783.64
2023-01-27T05:01:49.896Z,100779.31
2023-01-27T05:02:51.890Z,100787.11
2023-01-27T05:03:55.210Z,100777.53
2023-01-27T05:04:57.138Z,100782.75
2023-01-27T05:05:59.114Z,100781.92
2023-01-27T05:07:01.279Z,100780.13
2023-01-27T05:08:04.681Z,100780.97
2023-01-27T05:09:06.620Z,100781.00
2023-01-27T05:10:10.314Z,100781.92
2023-01-27T05:11:13.013Z,100777.50
2023-01-27T05:12:15.031Z,100778.36
2023-01-27T05:13:18.856Z,100769.74
2023-01-27T05:14:20.778Z,100775.78
2023-01-27T05:15:24.517Z,100773.14
2023-01-27T05:16:26.757Z,100780.09
2023-01-27T05:17:33.455Z,100785.19
2023-01-27T05:18:36.104Z,100777.44
2023-01-27T05:19:37.994Z,100789.48
2023-01-27T05:20:40.351Z,100775.69
2023-01-27T05:21:42.228Z,100780.03
2023-01-27T05:22:44.128Z,100776.52
2023-01-27T05:23:46.234Z,100783.49
2023-01-27T05:24:48.264Z,100783.52
2023-01-27T05:25:50.562Z,100787.86
2023-01-27T05:26:52.535Z,100781.81
2023-01-27T05:27:54.430Z,100778.31
2023-01-27T05:28:58.891Z,100777.45
2023-01-27T05:30:01.753Z,100780.08
2023-01-27T05:31:10.505Z,100776.64
2023-01-27T05:32:12.524Z,100781.83
2023-01-27T05:33:15.538Z,100777.44
2023-01-27T05:34:17.580Z,100780.03
2023-01-27T05:35:19.701Z,100779.97
2023-01-27T05:36:23.383Z,100780.86
2023-01-27T05:37:26.284Z,100779.16
2023-01-27T05:38:29.317Z,100777.50
2023-01-27T05:39:31.462Z,100774.06
2023-01-27T05:40:33.535Z,100779.23
2023-01-27T05:41:37.029Z,100772.34
2023-01-27T05:42:39.108Z,100773.14
2023-01-27T05:43:43.229Z,100776.61
2023-01-27T05:44:45.202Z,100777.50
2023-01-27T05:45:47.269Z,100777.50
2023-01-27T05:46:49.398Z,100779.22
2023-01-27T05:47:51.937Z,100772.27
2023-01-27T05:48:56.270Z,100782.62
2023-01-27T05:49:58.190Z,100774.91
2023-01-27T05:51:00.386Z,100780.92
2023-01-27T05:52:02.412Z,100783.51
2023-01-27T05:53:04.472Z,100779.97
2023-01-27T05:54:07.337Z,100778.20
2023-01-27T05:55:09.637Z,100774.72
2023-01-27T05:56:13.877Z,100773.91
2023-01-27T05:57:15.818Z,100789.50
2023-01-27T05:58:19.284Z,100778.22
2023-01-27T05:59:21.354Z,100782.55
2023-01-27T06:00:23.680Z,100778.28
2023-01-27T06:02:38.414Z,100781.83
2023-01-27T06:03:41.776Z,100779.97
2023-01-27T06:04:44.018Z,100778.31
2023-01-27T06:05:51.360Z,100776.53
2023-01-27T06:06:53.382Z,100786.05
2023-01-27T06:07:57.457Z,100783.41
2023-01-27T06:08:59.920Z,100786.84
2023-01-27T06:10:01.897Z,100785.98
2023-01-27T06:11:06.154Z,100788.59
2023-01-27T06:12:08.085Z,100781.66
2023-01-27T06:13:10.072Z,100787.67
2023-01-27T06:14:12.207Z,100795.52
2023-01-27T06:15:14.721Z,100792.95
2023-01-27T06:16:20.157Z,100785.11
2023-01-27T06:17:22.190Z,100793.84
2023-01-27T06:18:24.245Z,100789.44
2023-01-27T06:19:26.240Z,100798.11
2023-01-27T06:20:28.195Z,100792.09
2023-01-27T06:21:30.074Z,100799.00
2023-01-27T06:22:32.344Z,100794.70
2023-01-27T06:23:34.820Z,100799.02
2023-01-27T06:24:36.807Z,100808.49
2023-01-27T06:25:41.652Z,100800.77
2023-01-27T06:26:43.689Z,100793.86
2023-01-27T06:27:45.557Z,100799.95
2023-01-27T06:28:47.762Z,100802.54
2023-01-27T06:29:49.717Z,100799.09
2023-01-27T06:30:51.742Z,100799.17
2023-01-27T06:31:53.746Z,100795.72
2023-01-27T06:32:55.808Z,100797.41
2023-01-27T06:33:59.426Z,100798.27
2023-01-27T06:35:02.834Z,100806.87
2023-01-27T06:36:08.314Z,100796.50
2023-01-27T06:37:10.275Z,100800.79
2023-01-27T06:38:13.080Z,100802.54
2023-01-27T06:39:14.984Z,100800.02
2023-01-27T06:40:17.647Z,100801.73
2023-01-27T06:41:19.897Z,100800.00
2023-01-27T06:42:21.916Z,100797.45
2023-01-27T06:43:25.507Z,100797.44
2023-01-27T06:44:27.389Z,100798.30
2023-01-27T06:45:29.793Z,100801.70
2023-01-27T06:46:31.892Z,100800.02
2023-01-27T06:47:33.893Z,100796.52
2023-01-27T06:48:36.021Z,100801.68
2023-01-27T06:49:38.039Z,100793.11
2023-01-27T06:50:40.227Z,100797.45
2023-01-27T06:51:42.304Z,100800.05
2023-01-27T06:52:44.203Z,100799.14
2023-01-27T06:53:46.965Z,100799.19
2023-01-27T06:54:48.846Z,100796.58
2023-01-27T06:55:56.220Z,100793.11
2023-01-27T06:56:58.287Z,100796.58
2023-01-27T06:58:03.679Z,100794.86
2023-01-27T06:59:05.602Z,100790.60
2023-01-27T07:00:09.475Z,100797.45
2023-01-27T07:01:11.540Z,100793.11
2023-01-27T07:02:13.710Z,100798.33
2023-01-27T07:03:16.789Z,100802.64
2023-01-27T07:04:18.798Z,100796.61
2023-01-27T07:05:20.691Z,100800.09
2023-01-27T07:06:22.710Z,100798.33
2023-01-27T07:07:24.639Z,100791.49
2023-01-27T07:08:26.685Z,100790.63
2023-01-27T07:09:28.562Z,100801.86
2023-01-27T07:10:30.899Z,100794.97
2023-01-27T07:11:32.775Z,100800.09
2023-01-27T07:12:35.292Z,100794.95
2023-01-27T07:13:37.182Z,100791.46
2023-01-27T07:14:39.078Z,100792.31
2023-01-27T07:15:45.372Z,100783.72
2023-01-27T07:16:47.402Z,100788.05
2023-01-27T07:17:49.390Z,100788.02
2023-01-27T07:18:51.314Z,100789.74
2023-01-27T07:19:53.357Z,100787.23
2023-01-27T07:20:55.341Z,100787.23
2023-01-27T07:21:57.333Z,100788.09
2023-01-27T07:23:01.598Z,100795.86
2023-01-27T07:24:05.806Z,100790.66
2023-01-27T07:25:08.151Z,100791.55
2023-01-27T07:26:24.337Z,100791.55
2023-01-27T07:27:14.742Z,100793.33
2023-01-27T07:28:16.776Z,100800.23
2023-01-27T07:29:18.989Z,100803.64
2023-01-27T07:30:21.121Z,100797.59
2023-01-27T07:31:23.364Z,100801.95
2023-01-27T07:32:27.344Z,100792.44
2023-01-27T07:33:29.415Z,100795.02
2023-01-27T07:34:31.577Z,100797.62
2023-01-27T07:35:36.132Z,100797.67
2023-01-27T07:36:38.291Z,100793.25
2023-01-27T07:37:40.165Z,100796.70
2023-01-27T07:38:42.354Z,100796.64
2023-01-27T07:39:44.236Z,100794.92
2023-01-27T07:40:47.396Z,100787.10
2023-01-27T07:41:49.716Z,100784.50
2023-01-27T07:42:51.973Z,100786.23
2023-01-27T07:43:53.955Z,100794.06
2023-01-27T07:44:55.925Z,100789.74
2023-01-27T07:45:59.056Z,100790.52
2023-01-27T07:47:02.731Z,100784.50
2023-01-27T12:17:07.423Z,100695.98
2023-01-27T12:19:29.292Z,100701.22
2023-01-27T12:20:40.537Z,100699.42
2023-01-27T12:21:46.233Z,100698.55
2023-01-27T12:22:53.627Z,100701.16
2023-01-27T12:23:56.908Z,100695.95
2023-01-27T12:25:06.475Z,100690.77
2023-01-27T12:26:10.800Z,100698.56
2023-01-27T12:27:28.593Z,100699.45
2023-01-27T12:28:42.832Z,100696.89
2023-01-27T12:29:54.695Z,100694.30
2023-01-27T12:31:15.571Z,100686.50
2023-01-27T12:32:23.998Z,100691.73
2023-01-27T12:33:32.438Z,100682.23
2023-01-27T12:34:36.572Z,100687.44
2023-01-27T12:35:39.800Z,100679.66
2023-01-27T12:36:43.926Z,100679.62
2023-01-27T12:37:49.404Z,100682.23
2023-01-27T12:38:54.339Z,100688.27
2023-01-27T12:40:00.135Z,100684.81
2023-01-27T12:41:06.376Z,100677.05
2023-01-27T12:42:40.772Z,100668.38
2023-01-27T12:43:58.091Z,100672.73
2023-01-27T12:45:00.690Z,100672.75
2023-01-27T12:46:21.930Z,100672.75
2023-01-27T12:47:29.079Z,100673.63
2023-01-27T12:48:32.712Z,100672.78
2023-01-27T12:49:37.503Z,100677.98
2023-01-27T12:50:43.626Z,100671.88
2023-01-27T12:51:52.123Z,100678.80
2023-01-27T12:53:15.215Z,100678.77
2023-01-27T12:54:27.579Z,100683.97
2023-01-27T12:55:33.387Z,100673.58
2023-01-27T12:56:36.910Z,100679.66
2023-01-27T12:57:42.785Z,100680.57
2023-01-27T12:58:58.646Z,100672.78
2023-01-27T13:00:01.093Z,100671.04
2023-01-27T13:01:06.697Z,100670.17
2023-01-27T13:02:24.400Z,100670.18
2023-01-27T13:03:27.982Z,100673.66
2023-01-27T13:04:30.929Z,100679.68
2023-01-27T13:05:39.014Z,100677.89
2023-01-27T13:07:03.348Z,100671.89
2023-01-27T13:08:09.651Z,100672.77
2023-01-27T13:09:27.226Z,100670.97
2023-01-27T13:10:32.214Z,100683.92
2023-01-27T13:11:41.971Z,100667.48
2023-01-27T13:13:58.470Z,100670.98
2023-01-27T13:15:10.625Z,100676.15
2023-01-27T13:16:30.072Z,100670.94
2023-01-27T13:17:38.952Z,100680.45
2023-01-27T13:18:40.975Z,100669.23
2023-01-27T13:19:46.543Z,100668.34
2023-01-27T13:20:52.326Z,100667.48
2023-01-27T13:21:55.329Z,100672.69
2023-01-27T13:23:18.229Z,100668.37
2023-01-27T13:24:33.827Z,100665.82
2023-01-27T13:25:45.810Z,100668.39
2023-01-27T13:26:50.966Z,100674.47
2023-01-27T13:27:56.636Z,100677.02
2023-01-27T13:29:19.018Z,100676.97
2023-01-27T13:30:40.068Z,100672.66
2023-01-27T13:31:54.684Z,100667.41
2023-01-27T13:33:00.557Z,100673.53
2023-01-27T13:34:12.561Z,100672.64
2023-01-27T13:35:33.233Z,100670.01
2023-01-27T13:38:08.007Z,100664.02
2023-01-27T13:39:47.507Z,100674.36
2023-01-27T13:40:52.774Z,100670.03
2023-01-27T13:42:10.639Z,100675.20
2023-01-27T13:43:31.756Z,100670.84
2023-01-27T13:44:37.455Z,100672.56
2023-01-27T13:45:55.159Z,100671.69
2023-01-27T13:47:04.512Z,100673.43
2023-01-27T13:48:16.532Z,100676.00
2023-01-27T13:49:34.505Z,100669.09
2023-01-27T13:50:43.309Z,100667.36
2023-01-27T13:51:45.531Z,100676.00
2023-01-27T13:52:51.003Z,100676.02
2023-01-27T13:54:01.852Z,100672.59
2023-01-27T13:55:04.944Z,100673.42
2023-01-27T13:56:16.991Z,100673.33
2023-01-27T13:57:39.822Z,100681.92
2023-01-27T13:59:08.072Z,100675.94
2023-01-27T14:00:14.363Z,100681.15
2023-01-27T14:01:26.069Z,100678.50
2023-01-27T14:02:47.093Z,100689.72
2023-01-27T14:03:58.964Z,100681.02
2023-01-27T14:05:18.828Z,100690.55
2023-01-27T14:06:33.491Z,100686.16
2023-01-27T14:07:42.311Z,100687.91
2023-01-27T14:10:22.340Z,100680.22
2023-01-27T14:11:44.734Z,100692.30
2023-01-27T14:13:25.886Z,100693.12
2023-01-27T14:14:57.445Z,100687.06
2023-01-27T14:17:05.606Z,100677.60
2023-01-27T14:18:17.359Z,100689.62
2023-01-27T14:19:46.144Z,100691.42
2023-01-27T14:21:09.033Z,100686.27
2023-01-27T14:23:37.540Z,100682.04
2023-01-27T14:24:55.218Z,100694.06
2023-01-27T14:26:06.696Z,100692.31
2023-01-27T14:27:10.502Z,100695.75
2023-01-27T14:28:24.823Z,100692.33
2023-01-27T14:29:36.279Z,100694.05
2023-01-27T14:30:43.375Z,100694.08
2023-01-27T14:31:52.192Z,100698.39
2023-01-27T14:33:15.850Z,100697.50
2023-01-27T14:34:36.381Z,100697.52
2023-01-27T14:35:57.557Z,100703.58
2023-01-27T14:37:12.656Z,100693.19
2023-01-27T14:38:33.136Z,100694.95
2023-01-27T14:39:59.218Z,100703.60
2023-01-27T14:41:40.274Z,100693.25
2023-01-27T14:42:48.954Z,100699.31
2023-01-27T14:44:00.591Z,100696.71
2023-01-27T14:45:27.642Z,100700.20
2023-01-27T14:46:48.660Z,100699.30
2023-01-27T14:48:24.694Z,100703.67
2023-01-27T14:49:33.451Z,100698.45
2023-01-27T14:51:03.428Z,100703.67
2023-01-27T14:52:12.010Z,100701.06
2023-01-27T14:53:45.316Z,100700.20
2023-01-27T14:55:03.032Z,100697.63
2023-01-27T14:56:28.723Z,100683.78
2023-01-27T14:57:49.925Z,100696.75
2023-01-27T14:59:19.532Z,100695.02
2023-01-27T15:00:40.440Z,100700.22
2023-01-27T15:01:46.243Z,100701.91
2023-01-27T15:02:54.996Z,100701.87
2023-01-27T15:04:27.035Z,100704.50
2023-01-27T15:06:56.533Z,100698.56
2023-01-27T15:09:32.479Z,100709.80
2023-01-27T15:10:39.118Z,100702.80
2023-01-27T15:12:14.011Z,100707.08
2023-01-27T15:13:25.657Z,100701.09
2023-01-27T15:14:55.879Z,100706.27
2023-01-27T15:16:04.521Z,100702.81
2023-01-27T15:17:31.850Z,100705.41
2023-01-27T15:18:55.846Z,100708.02
2023-01-27T15:20:13.685Z,100705.44
2023-01-27T15:21:35.162Z,100708.03
2023-01-27T15:23:04.367Z,100712.37
2023-01-27T15:24:45.165Z,100707.19
2023-01-27T15:25:50.937Z,100707.18
2023-01-27T15:26:54.055Z,100705.41
2023-01-27T15:27:57.340Z,100703.73
2023-01-27T15:29:00.173Z,100707.19
2023-01-27T15:30:17.058Z,100703.73
2023-01-27T15:31:22.858Z,100702.81
2023-01-27T15:32:27.717Z,100702.80
2023-01-27T15:33:54.678Z,100701.03
2023-01-27T15:35:16.726Z,100702.78
2023-01-27T15:36:31.509Z,100691.59
2023-01-27T15:37:38.329Z,100695.11
2023-01-27T15:38:40.391Z,100697.68
2023-01-27T15:40:07.759Z,100700.25
2023-01-27T15:41:15.087Z,100685.57
2023-01-27T15:42:18.580Z,100698.53
2023-01-27T15:43:22.244Z,100695.00
2023-01-27T15:44:31.519Z,100699.34
2023-01-27T15:45:38.612Z,100694.20
2023-01-27T15:46:46.889Z,100692.50
2023-01-27T15:48:02.463Z,100702.90
2023-01-27T15:49:08.231Z,100705.47
2023-01-27T15:50:18.309Z,100700.30
2023-01-27T15:51:24.246Z,100696.85
2023-01-27T15:52:36.009Z,100696.83
2023-01-27T15:53:41.741Z,100707.18
2023-01-27T19:43:16.216Z,100695.64
2023-01-27T19:44:18.085Z,100704.22
2023-01-27T19:45:21.061Z,100709.45
2023-01-27T19:46:24.181Z,100724.18
2023-01-27T19:47:26.269Z,100709.50
2023-01-27T19:48:28.164Z,100719.03
2023-01-27T19:49:30.129Z,100714.70
2023-01-27T19:50:32.431Z,100718.20
2023-01-27T19:51:34.322Z,100710.39
2023-01-27T19:52:36.182Z,100719.06
2023-01-27T19:53:38.065Z,100706.09
2023-01-27T19:54:39.985Z,100712.11
2023-01-27T19:55:42.551Z,100712.09
2023-01-27T19:56:45.046Z,100709.58
2023-01-27T19:57:48.382Z,100717.35
2023-01-27T19:58:52.171Z,100713.01
2023-01-27T19:59:54.667Z,100702.64
2023-01-27T20:00:56.725Z,100702.66
2023-01-27T20:01:59.050Z,100713.06
2023-01-27T20:03:02.198Z,100709.62
2023-01-27T20:04:04.343Z,100705.20
2023-01-27T20:05:07.921Z,100710.42
2023-01-27T20:06:16.635Z,100708.67
2023-01-27T20:07:18.533Z,100710.38
2023-01-27T20:08:20.500Z,100704.36
2023-01-27T20:09:22.399Z,100712.16
2023-01-27T20:11:40.956Z,100710.52
2023-01-27T20:13:05.055Z,100705.26
2023-01-27T20:14:16.993Z,100710.39
2023-01-27T20:15:19.642Z,100722.53
2023-01-27T20:16:22.609Z,100713.06
2023-01-27T20:17:25.058Z,100714.80
2023-01-27T20:18:26.941Z,100715.63
2023-01-27T20:19:28.916Z,100709.63
2023-01-27T20:20:31.096Z,100718.27
2023-01-27T20:21:33.069Z,100712.19
2023-01-27T20:22:35.994Z,100715.55
2023-01-27T20:23:37.886Z,100712.96
2023-01-27T20:24:39.744Z,100719.92
2023-01-27T20:25:42.163Z,100708.69
2023-01-27T20:26:44.868Z,100710.42
2023-01-27T20:27:52.316Z,100717.34
2023-01-27T20:28:54.575Z,100712.16
2023-01-27T20:29:56.562Z,100712.98
2023-01-27T20:30:58.938Z,100710.39
2023-01-27T20:32:01.942Z,100710.39
2023-01-27T20:33:04.513Z,100707.79
2023-01-27T20:34:06.581Z,100701.67
2023-01-27T20:35:09.067Z,100702.55
2023-01-27T20:36:14.583Z,100698.26
2023-01-27T20:37:16.512Z,100698.23
2023-01-27T20:38:18.390Z,100694.77
2023-01-27T20:39:21.729Z,100697.38
2023-01-27T20:40:26.633Z,100691.33
2023-01-27T20:41:28.562Z,100692.16
2023-01-27T20:42:30.433Z,100695.64
2023-01-27T20:43:35.707Z,100696.48
2023-01-27T20:44:37.524Z,100688.70
2023-01-27T20:45:39.446Z,100683.53
2023-01-27T20:46:41.576Z,100690.47
2023-01-27T20:47:48.992Z,100685.25
2023-01-27T20:49:43.342Z,100693.11
2023-01-27T20:50:47.556Z,100696.51
2023-01-27T20:51:49.568Z,100692.17
2023-01-27T20:52:51.641Z,100699.95
2023-01-27T20:53:54.134Z,100699.92
2023-01-27T20:54:56.010Z,100699.05
2023-01-27T20:56:04.641Z,100698.25
2023-01-27T20:57:06.595Z,100695.64
2023-01-27T20:58:09.620Z,100703.44
2023-01-27T20:59:11.506Z,100706.02
2023-01-27T21:00:20.027Z,100701.61
2023-01-27T21:01:23.102Z,100705.97
2023-01-27T21:02:26.260Z,100710.33
2023-01-27T21:03:28.275Z,100705.08
2023-01-27T21:04:30.237Z,100705.08
2023-01-27T21:05:32.144Z,100705.98
2023-01-27T21:06:34.546Z,100708.59
2023-01-27T21:07:36.526Z,100709.41
2023-01-27T21:08:38.990Z,100704.20
2023-01-27T21:09:40.973Z,100699.91
2023-01-27T21:10:42.960Z,100703.25
2023-01-27T21:11:44.821Z,100707.55
2023-01-27T21:12:46.694Z,100703.36
2023-01-27T21:13:50.725Z,100702.53
2023-01-27T21:14:52.648Z,100706.78
2023-01-27T21:15:54.864Z,100697.33
2023-01-27T21:16:57.130Z,100699.02
2023-01-27T21:17:59.187Z,100698.18
2023-01-27T21:19:02.485Z,100702.53
2023-01-27T21:20:06.415Z,100691.30
2023-01-27T21:21:23.601Z,100699.95
2023-01-27T21:22:25.496Z,100695.59
2023-01-27T21:23:27.862Z,100698.99
2023-01-27T21:24:30.805Z,100703.36
2023-01-27T21:25:37.675Z,100693.02
2023-01-27T21:26:39.819Z,100702.52
2023-01-27T21:27:41.736Z,100698.08
2023-01-27T21:28:45.403Z,100696.41
2023-01-27T21:29:47.473Z,100693.86
2023-01-27T21:30:49.572Z,100702.47
2023-01-27T21:31:51.522Z,100700.78
2023-01-27T21:32:53.598Z,100695.60
2023-01-27T21:33:58.095Z,100699.91
2023-01-27T21:35:00.003Z,100694.66
2023-01-27T21:36:03.532Z,100696.40
2023-01-27T21:37:05.476Z,100695.52
2023-01-27T21:38:07.666Z,100696.39
2023-01-27T21:39:09.660Z,100697.14
2023-01-27T21:40:13.107Z,100692.80
2023-01-27T21:41:17.511Z,100701.41
2023-01-27T21:42:19.436Z,100697.14
2023-01-27T21:43:23.660Z,100684.13
2023-01-27T21:45:38.619Z,100690.39
2023-01-27T21:46:40.786Z,100685.94
2023-01-27T21:47:42.882Z,100685.08
2023-01-27T21:48:44.778Z,100682.47
2023-01-27T21:49:47.014Z,100687.66
2023-01-27T21:50:52.344Z,100676.39
2023-01-27T21:51:54.483Z,100669.50
2023-01-27T21:52:56.452Z,100677.15
2023-01-27T21:53:58.358Z,100671.97
2023-01-27T21:55:03.303Z,100678.05
2023-01-27T21:56:07.571Z,100673.70
2023-01-27T21:57:10.880Z,100677.12
2023-01-27T21:58:12.767Z,100678.00
2023-01-27T21:59:15.556Z,100672.88
2023-01-27T22:00:21.469Z,100681.48
2023-01-27T22:01:23.525Z,100681.53
2023-01-27T22:02:26.179Z,100681.55
2023-01-27T22:03:30.096Z,100676.38
2023-01-27T22:04:32.105Z,100675.58
2023-01-27T22:05:36.305Z,100677.16
2023-01-27T22:06:39.300Z,100680.48
2023-01-27T22:07:41.291Z,100669.09
2023-01-27T22:08:44.102Z,100676.14
2023-01-27T22:09:46.567Z,100674.24
2023-01-27T22:10:48.632Z,100674.31
2023-01-27T22:11:50.499Z,100674.42
2023-01-27T22:12:58.640Z,100676.05
2023-01-27T22:14:00.664Z,100669.97
2023-01-27T22:15:03.089Z,100667.28
2023-01-27T22:16:06.588Z,100673.50
2023-01-27T22:17:09.254Z,100667.36
2023-01-27T22:18:11.137Z,100661.39
2023-01-27T22:19:13.001Z,100660.56
2023-01-27T22:20:16.471Z,100660.63
2023-01-27T22:21:18.364Z,100659.77
2023-01-27T22:22:20.243Z,100652.02
2023-01-27T22:23:22.279Z,100653.73
2023-01-27T22:24:24.188Z,100653.75
2023-01-27T22:25:27.763Z,100647.72
2023-01-27T22:26:29.773Z,100652.88
2023-01-27T22:27:31.625Z,100648.48
2023-01-27T22:28:33.538Z,100643.42
2023-01-27T22:29:35.390Z,100643.45
2023-01-27T22:30:37.503Z,100640.65
2023-01-27T22:31:39.985Z,100637.96
2023-01-27T22:32:42.930Z,100638.06
2023-01-27T22:33:45.071Z,100645.86
2023-01-27T22:34:46.980Z,100636.39
2023-01-27T22:35:52.612Z,100634.69
2023-01-27T22:36:54.713Z,100642.36
2023-01-27T22:37:56.716Z,100635.38
2023-01-27T22:38:58.891Z,100634.52
2023-01-27T22:40:01.069Z,100637.13
2023-01-27T22:41:03.343Z,100632.00
2023-01-27T22:42:05.355Z,100632.85
2023-01-27T22:43:07.245Z,100626.92
2023-01-27T22:44:09.777Z,100634.56
2023-01-27T22:45:12.026Z,100636.99
2023-01-27T22:46:14.746Z,100633.46
2023-01-27T22:47:17.150Z,100635.41
2023-01-27T22:48:20.271Z,100629.26
2023-01-27T22:49:22.503Z,100636.99
2023-01-27T22:50:24.678Z,100645.58
2023-01-27T22:51:26.565Z,100631.71
2023-01-27T22:52:28.438Z,100634.23
2023-01-27T22:53:31.737Z,100641.17
2023-01-27T22:54:33.765Z,100641.28
2023-01-27T22:55:35.802Z,100638.73
2023-01-27T22:56:37.979Z,100631.10
2023-01-27T22:57:40.031Z,100635.47
2023-01-27T22:58:41.909Z,100631.20
2023-01-27T22:59:45.095Z,100635.53
2023-01-27T23:00:47.199Z,100626.95
2023-01-27T23:01:49.170Z,100629.53
2023-01-27T23:02:51.059Z,100628.61
2023-01-27T23:03:52.947Z,100626.08
2023-01-27T23:04:58.474Z,100619.96
2023-01-27T23:06:04.931Z,100630.30
2023-01-27T23:07:06.853Z,100630.33
2023-01-27T23:08:09.603Z,100622.54
2023-01-27T23:09:14.020Z,100626.73
2023-01-27T23:10:16.582Z,100620.69
2023-01-27T23:11:18.686Z,100613.85
2023-01-27T23:12:21.886Z,100613.66
2023-01-27T23:13:24.281Z,100620.44
2023-01-27T23:14:26.199Z,100616.09
2023-01-27T23:15:28.134Z,100620.31
2023-01-27T23:16:30.479Z,100624.61
2023-01-27T23:17:32.916Z,100622.86
2023-01-27T23:18:34.965Z,100624.64
2023-01-27T23:19:36.871Z,100629.70
2023-01-27T23:20:40.767Z,100627.06
2023-01-27T23:21:42.738Z,100625.27
2023-01-27T23:22:44.900Z,100623.56
2023-01-27T23:23:52.260Z,100625.38
2023-01-27T23:24:54.323Z,100628.89
2023-01-27T23:25:56.224Z,100624.34
2023-01-27T23:26:58.551Z,100621.85
2023-01-27T23:28:00.547Z,100622.70
2023-01-27T23:29:02.466Z,100620.14
2023-01-27T23:30:07.403Z,100626.34
2023-01-27T23:31:11.515Z,100618.47
2023-01-27T23:32:13.707Z,100620.12
2023-01-27T23:33:18.109Z,100622.67
2023-01-27T23:34:20.460Z,100614.92
2023-01-27T23:35:23.537Z,100616.70
2023-01-27T23:36:25.661Z,100614.95
2023-01-27T23:37:28.321Z,100624.45
2023-01-27T23:38:33.614Z,100622.63
2023-01-27T23:39:34.033Z,100620.92
2023-01-27T23:40:36.751Z,100624.30
2023-01-27T23:41:38.644Z,100627.88
2023-01-27T23:42:41.688Z,100622.74
2023-01-27T23:43:44.981Z,100624.45
2023-01-27T23:44:47.585Z,100621.05
2023-01-27T23:45:53.713Z,100623.55
2023-01-27T23:46:55.913Z,100624.48
2023-01-27T23:47:58.009Z,100620.30
2023-01-27T23:48:59.888Z,100624.72
2023-01-27T23:50:02.170Z,100618.69
2023-01-27T23:51:09.780Z,100621.33
2023-01-27T23:52:11.982Z,100614.45
2023-01-27T23:53:15.141Z,100620.48
2023-01-27T23:54:17.335Z,100624.79
2023-01-27T23:55:19.498Z,100623.11
2023-01-27T23:56:21.477Z,100620.57
2023-01-27T23:57:23.379Z,100615.38
2023-01-27T23:58:26.678Z,100613.78
2023-01-27T23:59:28.768Z,100612.69
